sensor_id;sensor_type;location;lat;lon;timestamp;P1;durP1;ratioP1;P2;durP2;ratioP2
42338;SDS011;27993;45.392;10.918;2022-09-09T00:04:33;7.43;;;6.00;;
42338;SDS011;27993;45.392;10.918;2022-09-09T00:15:11;9.65;;;7.00;;
42338;SDS011;27993;45.392;10.918;2022-09-09T00:17:47;8.93;;;6.57;;
42338;SDS011;27993;45.392;10.918;2022-09-09T00:23:28;8.48;;;6.47;;
42338;SDS011;27993;45.392;10.918;2022-09-09T00:29:16;13.98;;;7.35;;
42338;SDS011;27993;45.392;10.918;2022-09-09T00:32:00;21.12;;;7.40;;
42338;SDS011;27993;45.392;10.918;2022-09-09T00:34:46;12.10;;;6.20;;
42338;SDS011;27993;45.392;10.918;2022-09-09T00:37:20;9.02;;;6.97;;
42338;SDS011;27993;45.392;10.918;2022-09-09T00:39:57;17.87;;;7.07;;
42338;SDS011;27993;45.392;10.918;2022-09-09T00:42:36;12.27;;;6.97;;
42338;SDS011;27993;45.392;10.918;2022-09-09T00:45:33;10.10;;;8.40;;
42338;SDS011;27993;45.392;10.918;2022-09-09T00:48:28;8.75;;;7.10;;
42338;SDS011;27993;45.392;10.918;2022-09-09T00:51:40;20.65;;;7.53;;
42338;SDS011;27993;45.392;10.918;2022-09-09T00:54:35;8.20;;;6.47;;
42338;SDS011;27993;45.392;10.918;2022-09-09T00:57:30;15.65;;;6.35;;
42338;SDS011;27993;45.392;10.918;2022-09-09T01:08:26;10.02;;;6.07;;
42338;SDS011;27993;45.392;10.918;2022-09-09T01:11:20;8.10;;;6.37;;
42338;SDS011;27993;45.392;10.918;2022-09-09T01:13:55;9.20;;;6.75;;
42338;SDS011;27993;45.392;10.918;2022-09-09T01:19:04;15.77;;;6.80;;
42338;SDS011;27993;45.392;10.918;2022-09-09T01:22:01;9.00;;;5.97;;
42338;SDS011;27993;45.392;10.918;2022-09-09T01:24:38;18.65;;;6.50;;
42338;SDS011;27993;45.392;10.918;2022-09-09T01:27:21;9.32;;;5.05;;
42338;SDS011;27993;45.392;10.918;2022-09-09T01:29:55;9.57;;;6.55;;
42338;SDS011;27993;45.392;10.918;2022-09-09T01:32:42;15.40;;;6.78;;
42338;SDS011;27993;45.392;10.918;2022-09-09T01:35:19;8.43;;;6.18;;
42338;SDS011;27993;45.392;10.918;2022-09-09T01:38:15;12.52;;;5.80;;
42338;SDS011;27993;45.392;10.918;2022-09-09T01:40:46;9.07;;;5.60;;
42338;SDS011;27993;45.392;10.918;2022-09-09T01:43:16;21.02;;;6.18;;
42338;SDS011;27993;45.392;10.918;2022-09-09T01:45:49;11.38;;;6.55;;
42338;SDS011;27993;45.392;10.918;2022-09-09T01:48:24;7.55;;;5.57;;
42338;SDS011;27993;45.392;10.918;2022-09-09T01:50:56;9.10;;;5.72;;
42338;SDS011;27993;45.392;10.918;2022-09-09T01:53:26;8.77;;;5.25;;
42338;SDS011;27993;45.392;10.918;2022-09-09T01:58:42;9.55;;;5.57;;
42338;SDS011;27993;45.392;10.918;2022-09-09T02:01:23;7.07;;;4.65;;
42338;SDS011;27993;45.392;10.918;2022-09-09T02:03:58;15.80;;;4.70;;
42338;SDS011;27993;45.392;10.918;2022-09-09T02:06:34;7.78;;;5.55;;
42338;SDS011;27993;45.392;10.918;2022-09-09T02:09:07;10.73;;;5.10;;
42338;SDS011;27993;45.392;10.918;2022-09-09T02:11:42;19.98;;;6.07;;
42338;SDS011;27993;45.392;10.918;2022-09-09T02:14:24;13.07;;;5.25;;
42338;SDS011;27993;45.392;10.918;2022-09-09T02:17:05;10.40;;;5.10;;
42338;SDS011;27993;45.392;10.918;2022-09-09T02:19:45;8.05;;;4.80;;
42338;SDS011;27993;45.392;10.918;2022-09-09T02:22:19;11.60;;;5.57;;
42338;SDS011;27993;45.392;10.918;2022-09-09T02:24:54;18.10;;;4.90;;
42338;SDS011;27993;45.392;10.918;2022-09-09T02:27:29;7.20;;;5.62;;
42338;SDS011;27993;45.392;10.918;2022-09-09T02:29:59;14.05;;;6.28;;
42338;SDS011;27993;45.392;10.918;2022-09-09T02:32:32;15.52;;;6.10;;
42338;SDS011;27993;45.392;10.918;2022-09-09T02:35:06;11.48;;;5.90;;
42338;SDS011;27993;45.392;10.918;2022-09-09T02:37:41;12.85;;;6.03;;
42338;SDS011;27993;45.392;10.918;2022-09-09T02:40:16;12.15;;;5.87;;
42338;SDS011;27993;45.392;10.918;2022-09-09T02:42:47;12.65;;;6.75;;
42338;SDS011;27993;45.392;10.918;2022-09-09T02:45:20;7.57;;;4.37;;
42338;SDS011;27993;45.392;10.918;2022-09-09T02:51:01;11.15;;;5.10;;
42338;SDS011;27993;45.392;10.918;2022-09-09T02:53:31;7.35;;;5.25;;
42338;SDS011;27993;45.392;10.918;2022-09-09T02:56:15;11.93;;;5.45;;
42338;SDS011;27993;45.392;10.918;2022-09-09T02:58:49;11.00;;;4.80;;
42338;SDS011;27993;45.392;10.918;2022-09-09T03:01:21;7.62;;;5.28;;
42338;SDS011;27993;45.392;10.918;2022-09-09T03:03:52;6.40;;;4.95;;
42338;SDS011;27993;45.392;10.918;2022-09-09T03:06:24;7.65;;;5.10;;
42338;SDS011;27993;45.392;10.918;2022-09-09T03:08:55;7.75;;;4.90;;
42338;SDS011;27993;45.392;10.918;2022-09-09T03:11:30;7.00;;;5.00;;
42338;SDS011;27993;45.392;10.918;2022-09-09T03:14:01;6.32;;;4.87;;
42338;SDS011;27993;45.392;10.918;2022-09-09T03:16:32;11.18;;;5.35;;
42338;SDS011;27993;45.392;10.918;2022-09-09T03:19:04;10.05;;;5.30;;
42338;SDS011;27993;45.392;10.918;2022-09-09T03:21:36;12.50;;;6.15;;
42338;SDS011;27993;45.392;10.918;2022-09-09T03:24:06;15.77;;;5.35;;
42338;SDS011;27993;45.392;10.918;2022-09-09T03:26:37;12.77;;;5.65;;
42338;SDS011;27993;45.392;10.918;2022-09-09T03:29:07;15.35;;;6.60;;
42338;SDS011;27993;45.392;10.918;2022-09-09T03:31:38;9.07;;;5.53;;
42338;SDS011;27993;45.392;10.918;2022-09-09T03:34:09;7.50;;;4.30;;
42338;SDS011;27993;45.392;10.918;2022-09-09T03:39:11;7.57;;;4.93;;
42338;SDS011;27993;45.392;10.918;2022-09-09T03:41:41;11.15;;;4.78;;
42338;SDS011;27993;45.392;10.918;2022-09-09T03:44:14;7.45;;;5.15;;
42338;SDS011;27993;45.392;10.918;2022-09-09T03:46:44;9.95;;;5.12;;
42338;SDS011;27993;45.392;10.918;2022-09-09T03:49:15;6.20;;;4.65;;
42338;SDS011;27993;45.392;10.918;2022-09-09T03:51:46;9.27;;;4.68;;
42338;SDS011;27993;45.392;10.918;2022-09-09T03:54:17;11.00;;;4.68;;
42338;SDS011;27993;45.392;10.918;2022-09-09T03:56:47;7.57;;;5.28;;
42338;SDS011;27993;45.392;10.918;2022-09-09T03:59:18;13.18;;;5.60;;
42338;SDS011;27993;45.392;10.918;2022-09-09T04:01:49;9.32;;;5.57;;
42338;SDS011;27993;45.392;10.918;2022-09-09T04:04:19;7.82;;;4.57;;
42338;SDS011;27993;45.392;10.918;2022-09-09T04:06:50;7.43;;;4.87;;
42338;SDS011;27993;45.392;10.918;2022-09-09T04:09:21;10.68;;;5.10;;
42338;SDS011;27993;45.392;10.918;2022-09-09T04:11:51;8.80;;;4.87;;
42338;SDS011;27993;45.392;10.918;2022-09-09T04:14:23;13.52;;;5.60;;
42338;SDS011;27993;45.392;10.918;2022-09-09T04:16:56;14.50;;;5.28;;
42338;SDS011;27993;45.392;10.918;2022-09-09T04:19:27;8.35;;;5.03;;
42338;SDS011;27993;45.392;10.918;2022-09-09T04:21:58;8.88;;;5.57;;
42338;SDS011;27993;45.392;10.918;2022-09-09T04:26:59;11.03;;;4.70;;
42338;SDS011;27993;45.392;10.918;2022-09-09T04:29:30;7.07;;;5.57;;
42338;SDS011;27993;45.392;10.918;2022-09-09T04:32:00;14.60;;;4.82;;
42338;SDS011;27993;45.392;10.918;2022-09-09T04:34:31;5.32;;;4.60;;
42338;SDS011;27993;45.392;10.918;2022-09-09T04:37:02;8.25;;;5.62;;
42338;SDS011;27993;45.392;10.918;2022-09-09T04:39:33;14.45;;;4.87;;
42338;SDS011;27993;45.392;10.918;2022-09-09T04:42:04;13.25;;;6.18;;
42338;SDS011;27993;45.392;10.918;2022-09-09T04:44:34;16.80;;;6.05;;
42338;SDS011;27993;45.392;10.918;2022-09-09T04:49:36;17.60;;;5.07;;
42338;SDS011;27993;45.392;10.918;2022-09-09T04:52:07;12.55;;;4.93;;
42338;SDS011;27993;45.392;10.918;2022-09-09T04:54:37;14.38;;;5.22;;
42338;SDS011;27993;45.392;10.918;2022-09-09T04:59:40;18.67;;;6.00;;
42338;SDS011;27993;45.392;10.918;2022-09-09T05:02:11;8.45;;;4.35;;
42338;SDS011;27993;45.392;10.918;2022-09-09T05:04:41;14.50;;;5.00;;
42338;SDS011;27993;45.392;10.918;2022-09-09T05:07:12;9.80;;;4.43;;
42338;SDS011;27993;45.392;10.918;2022-09-09T05:09:44;9.75;;;5.30;;
42338;SDS011;27993;45.392;10.918;2022-09-09T05:12:15;14.13;;;6.15;;
42338;SDS011;27993;45.392;10.918;2022-09-09T05:14:49;6.62;;;4.90;;
42338;SDS011;27993;45.392;10.918;2022-09-09T05:19:51;12.00;;;5.05;;
42338;SDS011;27993;45.392;10.918;2022-09-09T05:24:53;16.05;;;5.57;;
42338;SDS011;27993;45.392;10.918;2022-09-09T05:29:54;16.83;;;5.90;;
42338;SDS011;27993;45.392;10.918;2022-09-09T05:32:24;10.75;;;5.68;;
42338;SDS011;27993;45.392;10.918;2022-09-09T05:34:55;12.00;;;5.53;;
42338;SDS011;27993;45.392;10.918;2022-09-09T05:37:26;15.95;;;7.00;;
42338;SDS011;27993;45.392;10.918;2022-09-09T05:39:57;13.93;;;6.10;;
42338;SDS011;27993;45.392;10.918;2022-09-09T05:42:31;13.13;;;6.00;;
42338;SDS011;27993;45.392;10.918;2022-09-09T05:45:02;15.60;;;5.65;;
42338;SDS011;27993;45.392;10.918;2022-09-09T05:47:33;10.50;;;5.32;;
42338;SDS011;27993;45.392;10.918;2022-09-09T05:50:04;11.23;;;4.75;;
42338;SDS011;27993;45.392;10.918;2022-09-09T05:52:35;19.40;;;5.18;;
42338;SDS011;27993;45.392;10.918;2022-09-09T05:55:06;10.27;;;5.20;;
42338;SDS011;27993;45.392;10.918;2022-09-09T05:57:37;15.82;;;5.30;;
42338;SDS011;27993;45.392;10.918;2022-09-09T06:00:09;7.45;;;5.15;;
42338;SDS011;27993;45.392;10.918;2022-09-09T06:02:40;14.02;;;4.75;;
42338;SDS011;27993;45.392;10.918;2022-09-09T06:05:11;10.43;;;4.82;;
42338;SDS011;27993;45.392;10.918;2022-09-09T06:07:42;12.57;;;4.72;;
42338;SDS011;27993;45.392;10.918;2022-09-09T06:10:14;10.43;;;6.25;;
42338;SDS011;27993;45.392;10.918;2022-09-09T06:12:45;8.32;;;4.43;;
42338;SDS011;27993;45.392;10.918;2022-09-09T06:15:15;21.20;;;5.20;;
42338;SDS011;27993;45.392;10.918;2022-09-09T06:17:47;5.87;;;4.78;;
42338;SDS011;27993;45.392;10.918;2022-09-09T06:20:23;12.27;;;5.53;;
42338;SDS011;27993;45.392;10.918;2022-09-09T06:22:54;21.05;;;7.35;;
42338;SDS011;27993;45.392;10.918;2022-09-09T06:25:25;19.80;;;5.32;;
42338;SDS011;27993;45.392;10.918;2022-09-09T06:27:55;10.65;;;7.18;;
42338;SDS011;27993;45.392;10.918;2022-09-09T06:30:26;24.35;;;11.68;;
42338;SDS011;27993;45.392;10.918;2022-09-09T06:32:57;24.77;;;14.25;;
42338;SDS011;27993;45.392;10.918;2022-09-09T06:35:27;20.50;;;13.73;;
42338;SDS011;27993;45.392;10.918;2022-09-09T06:37:58;22.80;;;14.95;;
42338;SDS011;27993;45.392;10.918;2022-09-09T06:40:29;35.10;;;13.15;;
42338;SDS011;27993;45.392;10.918;2022-09-09T06:43:00;13.35;;;6.90;;
42338;SDS011;27993;45.392;10.918;2022-09-09T06:45:31;7.35;;;5.10;;
42338;SDS011;27993;45.392;10.918;2022-09-09T06:48:02;10.90;;;4.30;;
42338;SDS011;27993;45.392;10.918;2022-09-09T06:50:33;5.43;;;4.07;;
42338;SDS011;27993;45.392;10.918;2022-09-09T06:53:03;12.27;;;4.00;;
42338;SDS011;27993;45.392;10.918;2022-09-09T06:55:34;9.63;;;4.55;;
42338;SDS011;27993;45.392;10.918;2022-09-09T06:58:08;18.62;;;4.03;;
42338;SDS011;27993;45.392;10.918;2022-09-09T07:00:38;7.05;;;4.15;;
42338;SDS011;27993;45.392;10.918;2022-09-09T07:03:09;5.80;;;3.50;;
42338;SDS011;27993;45.392;10.918;2022-09-09T07:05:40;6.95;;;3.58;;
42338;SDS011;27993;45.392;10.918;2022-09-09T07:08:11;8.18;;;3.45;;
42338;SDS011;27993;45.392;10.918;2022-09-09T07:10:41;11.45;;;3.35;;
42338;SDS011;27993;45.392;10.918;2022-09-09T07:13:14;7.78;;;3.55;;
42338;SDS011;27993;45.392;10.918;2022-09-09T07:15:45;7.05;;;3.25;;
42338;SDS011;27993;45.392;10.918;2022-09-09T07:18:16;4.43;;;2.92;;
42338;SDS011;27993;45.392;10.918;2022-09-09T07:20:53;13.62;;;3.67;;
42338;SDS011;27993;45.392;10.918;2022-09-09T07:23:25;6.87;;;3.17;;
42338;SDS011;27993;45.392;10.918;2022-09-09T07:25:56;7.20;;;3.40;;
42338;SDS011;27993;45.392;10.918;2022-09-09T07:28:27;5.65;;;3.08;;
42338;SDS011;27993;45.392;10.918;2022-09-09T07:31:01;8.75;;;3.42;;
42338;SDS011;27993;45.392;10.918;2022-09-09T07:33:34;6.05;;;3.03;;
42338;SDS011;27993;45.392;10.918;2022-09-09T07:36:24;5.53;;;3.20;;
42338;SDS011;27993;45.392;10.918;2022-09-09T07:38:58;5.32;;;3.50;;
42338;SDS011;27993;45.392;10.918;2022-09-09T07:41:48;6.78;;;3.65;;
42338;SDS011;27993;45.392;10.918;2022-09-09T07:44:20;7.55;;;3.30;;
42338;SDS011;27993;45.392;10.918;2022-09-09T07:46:53;6.80;;;3.47;;
42338;SDS011;27993;45.392;10.918;2022-09-09T07:49:24;17.20;;;3.92;;
42338;SDS011;27993;45.392;10.918;2022-09-09T07:51:54;6.78;;;4.03;;
42338;SDS011;27993;45.392;10.918;2022-09-09T07:54:25;7.80;;;3.75;;
42338;SDS011;27993;45.392;10.918;2022-09-09T07:56:56;7.35;;;3.55;;
42338;SDS011;27993;45.392;10.918;2022-09-09T07:59:26;10.20;;;3.03;;
42338;SDS011;27993;45.392;10.918;2022-09-09T08:01:57;10.02;;;3.30;;
42338;SDS011;27993;45.392;10.918;2022-09-09T08:04:28;5.45;;;3.62;;
42338;SDS011;27993;45.392;10.918;2022-09-09T08:07:00;9.07;;;3.58;;
42338;SDS011;27993;45.392;10.918;2022-09-09T08:09:33;17.12;;;3.37;;
42338;SDS011;27993;45.392;10.918;2022-09-09T08:12:03;5.65;;;2.80;;
42338;SDS011;27993;45.392;10.918;2022-09-09T08:14:35;9.38;;;3.95;;
42338;SDS011;27993;45.392;10.918;2022-09-09T08:17:06;7.47;;;3.40;;
42338;SDS011;27993;45.392;10.918;2022-09-09T08:19:37;9.02;;;3.30;;
42338;SDS011;27993;45.392;10.918;2022-09-09T08:22:07;9.57;;;4.50;;
42338;SDS011;27993;45.392;10.918;2022-09-09T08:24:38;10.63;;;3.33;;
42338;SDS011;27993;45.392;10.918;2022-09-09T08:27:09;10.23;;;3.03;;
42338;SDS011;27993;45.392;10.918;2022-09-09T08:29:39;10.07;;;3.22;;
42338;SDS011;27993;45.392;10.918;2022-09-09T08:32:10;5.68;;;3.50;;
42338;SDS011;27993;45.392;10.918;2022-09-09T08:34:41;5.72;;;3.15;;
42338;SDS011;27993;45.392;10.918;2022-09-09T08:37:11;6.47;;;3.30;;
42338;SDS011;27993;45.392;10.918;2022-09-09T08:39:42;11.20;;;3.53;;
42338;SDS011;27993;45.392;10.918;2022-09-09T08:42:17;9.75;;;3.25;;
42338;SDS011;27993;45.392;10.918;2022-09-09T08:44:58;12.00;;;4.43;;
42338;SDS011;27993;45.392;10.918;2022-09-09T08:50:21;11.27;;;3.30;;
42338;SDS011;27993;45.392;10.918;2022-09-09T08:58:29;7.68;;;3.50;;
42338;SDS011;27993;45.392;10.918;2022-09-09T09:11:36;11.68;;;3.97;;
42338;SDS011;27993;45.392;10.918;2022-09-09T09:14:13;7.12;;;3.55;;
42338;SDS011;27993;45.392;10.918;2022-09-09T09:19:32;9.73;;;4.00;;
42338;SDS011;27993;45.392;10.918;2022-09-09T09:24:49;10.73;;;3.78;;
42338;SDS011;27993;45.392;10.918;2022-09-09T09:27:43;7.32;;;3.05;;
42338;SDS011;27993;45.392;10.918;2022-09-09T09:35:42;11.88;;;3.53;;
42338;SDS011;27993;45.392;10.918;2022-09-09T09:38:16;5.68;;;3.50;;
42338;SDS011;27993;45.392;10.918;2022-09-09T09:40:52;10.10;;;3.60;;
42338;SDS011;27993;45.392;10.918;2022-09-09T09:43:29;8.60;;;3.75;;
42338;SDS011;27993;45.392;10.918;2022-09-09T09:46:04;13.75;;;3.50;;
42338;SDS011;27993;45.392;10.918;2022-09-09T09:48:35;11.80;;;2.85;;
42338;SDS011;27993;45.392;10.918;2022-09-09T09:51:09;7.37;;;2.95;;
42338;SDS011;27993;45.392;10.918;2022-09-09T09:53:45;39.72;;;4.05;;
42338;SDS011;27993;45.392;10.918;2022-09-09T09:56:16;22.87;;;3.50;;
42338;SDS011;27993;45.392;10.918;2022-09-09T09:58:50;12.30;;;3.12;;
42338;SDS011;27993;45.392;10.918;2022-09-09T10:01:22;26.12;;;6.43;;
42338;SDS011;27993;45.392;10.918;2022-09-09T10:04:00;7.95;;;3.53;;
42338;SDS011;27993;45.392;10.918;2022-09-09T10:06:43;5.03;;;2.92;;
42338;SDS011;27993;45.392;10.918;2022-09-09T10:09:47;8.07;;;3.30;;
42338;SDS011;27993;45.392;10.918;2022-09-09T10:12:17;12.90;;;3.08;;
42338;SDS011;27993;45.392;10.918;2022-09-09T10:15:00;10.00;;;3.33;;
42338;SDS011;27993;45.392;10.918;2022-09-09T10:26:16;7.93;;;3.33;;
42338;SDS011;27993;45.392;10.918;2022-09-09T10:29:18;12.70;;;3.50;;
42338;SDS011;27993;45.392;10.918;2022-09-09T10:32:09;4.72;;;3.20;;
42338;SDS011;27993;45.392;10.918;2022-09-09T10:46:58;4.03;;;2.95;;
42338;SDS011;27993;45.392;10.918;2022-09-09T10:53:12;3.90;;;2.17;;
42338;SDS011;27993;45.392;10.918;2022-09-09T10:55:52;5.78;;;2.20;;
42338;SDS011;27993;45.392;10.918;2022-09-09T11:01:06;2.75;;;1.73;;
42338;SDS011;27993;45.392;10.918;2022-09-09T11:03:47;7.95;;;2.42;;
42338;SDS011;27993;45.392;10.918;2022-09-09T11:06:24;4.25;;;2.72;;
42338;SDS011;27993;45.392;10.918;2022-09-09T11:09:00;7.93;;;2.62;;
42338;SDS011;27993;45.392;10.918;2022-09-09T11:11:56;6.20;;;2.60;;
42338;SDS011;27993;45.392;10.918;2022-09-09T11:14:29;5.45;;;2.37;;
42338;SDS011;27993;45.392;10.918;2022-09-09T11:17:12;3.03;;;2.40;;
42338;SDS011;27993;45.392;10.918;2022-09-09T11:19:46;3.75;;;2.45;;
42338;SDS011;27993;45.392;10.918;2022-09-09T11:27:26;6.93;;;3.10;;
42338;SDS011;27993;45.392;10.918;2022-09-09T11:41:32;6.28;;;2.10;;
42338;SDS011;27993;45.392;10.918;2022-09-09T11:44:12;3.80;;;1.80;;
42338;SDS011;27993;45.392;10.918;2022-09-09T11:46:50;3.28;;;2.20;;
42338;SDS011;27993;45.392;10.918;2022-09-09T11:49:43;3.60;;;1.90;;
42338;SDS011;27993;45.392;10.918;2022-09-09T11:52:20;5.72;;;2.12;;
42338;SDS011;27993;45.392;10.918;2022-09-09T11:54:54;4.80;;;2.17;;
42338;SDS011;27993;45.392;10.918;2022-09-09T11:57:31;9.55;;;2.50;;
42338;SDS011;27993;45.392;10.918;2022-09-09T12:00:05;3.10;;;1.83;;
42338;SDS011;27993;45.392;10.918;2022-09-09T12:02:36;2.45;;;1.55;;
42338;SDS011;27993;45.392;10.918;2022-09-09T12:05:18;4.53;;;2.00;;
42338;SDS011;27993;45.392;10.918;2022-09-09T12:07:57;9.88;;;2.78;;
42338;SDS011;27993;45.392;10.918;2022-09-09T12:10:29;3.78;;;2.30;;
42338;SDS011;27993;45.392;10.918;2022-09-09T12:13:23;5.07;;;2.37;;
42338;SDS011;27993;45.392;10.918;2022-09-09T12:15:56;3.53;;;2.40;;
42338;SDS011;27993;45.392;10.918;2022-09-09T12:18:32;10.93;;;2.12;;
42338;SDS011;27993;45.392;10.918;2022-09-09T12:21:13;4.07;;;2.58;;
42338;SDS011;27993;45.392;10.918;2022-09-09T12:26:38;3.15;;;1.83;;
42338;SDS011;27993;45.392;10.918;2022-09-09T12:34:52;4.45;;;1.60;;
42338;SDS011;27993;45.392;10.918;2022-09-09T12:37:37;3.20;;;1.20;;
42338;SDS011;27993;45.392;10.918;2022-09-09T12:40:21;1.92;;;1.27;;
42338;SDS011;27993;45.392;10.918;2022-09-09T12:42:56;3.08;;;2.30;;
42338;SDS011;27993;45.392;10.918;2022-09-09T12:45:28;5.32;;;1.65;;
42338;SDS011;27993;45.392;10.918;2022-09-09T12:50:37;2.35;;;1.90;;
42338;SDS011;27993;45.392;10.918;2022-09-09T12:53:16;2.58;;;1.62;;
42338;SDS011;27993;45.392;10.918;2022-09-09T12:55:57;6.15;;;2.00;;
42338;SDS011;27993;45.392;10.918;2022-09-09T12:58:30;9.05;;;2.40;;
42338;SDS011;27993;45.392;10.918;2022-09-09T13:01:05;4.45;;;1.90;;
42338;SDS011;27993;45.392;10.918;2022-09-09T13:03:41;75.43;;;5.22;;
42338;SDS011;27993;45.392;10.918;2022-09-09T13:06:16;3.75;;;1.98;;
42338;SDS011;27993;45.392;10.918;2022-09-09T13:08:51;4.05;;;2.33;;
42338;SDS011;27993;45.392;10.918;2022-09-09T13:11:27;7.55;;;1.98;;
42338;SDS011;27993;45.392;10.918;2022-09-09T13:14:42;4.68;;;2.53;;
42338;SDS011;27993;45.392;10.918;2022-09-09T13:17:17;3.72;;;2.17;;
42338;SDS011;27993;45.392;10.918;2022-09-09T13:19:50;4.93;;;2.20;;
42338;SDS011;27993;45.392;10.918;2022-09-09T13:27:39;5.75;;;2.17;;
42338;SDS011;27993;45.392;10.918;2022-09-09T13:35:45;6.05;;;2.33;;
42338;SDS011;27993;45.392;10.918;2022-09-09T13:38:29;6.30;;;2.30;;
42338;SDS011;27993;45.392;10.918;2022-09-09T13:41:06;6.93;;;2.42;;
42338;SDS011;27993;45.392;10.918;2022-09-09T13:43:42;4.90;;;2.33;;
42338;SDS011;27993;45.392;10.918;2022-09-09T13:51:39;3.45;;;2.00;;
42338;SDS011;27993;45.392;10.918;2022-09-09T13:54:18;4.53;;;2.25;;
42338;SDS011;27993;45.392;10.918;2022-09-09T13:56:49;4.45;;;2.33;;
42338;SDS011;27993;45.392;10.918;2022-09-09T13:59:20;6.70;;;2.28;;
42338;SDS011;27993;45.392;10.918;2022-09-09T14:01:51;9.73;;;2.30;;
42338;SDS011;27993;45.392;10.918;2022-09-09T14:04:22;7.12;;;2.60;;
42338;SDS011;27993;45.392;10.918;2022-09-09T14:06:52;6.90;;;2.53;;
42338;SDS011;27993;45.392;10.918;2022-09-09T14:09:24;6.45;;;2.42;;
42338;SDS011;27993;45.392;10.918;2022-09-09T14:11:55;4.90;;;2.05;;
42338;SDS011;27993;45.392;10.918;2022-09-09T14:14:25;2.70;;;1.75;;
42338;SDS011;27993;45.392;10.918;2022-09-09T14:16:56;11.12;;;2.75;;
42338;SDS011;27993;45.392;10.918;2022-09-09T14:19:26;5.30;;;1.85;;
42338;SDS011;27993;45.392;10.918;2022-09-09T14:21:57;6.93;;;2.90;;
42338;SDS011;27993;45.392;10.918;2022-09-09T14:24:28;8.60;;;2.78;;
42338;SDS011;27993;45.392;10.918;2022-09-09T14:26:59;4.30;;;2.47;;
42338;SDS011;27993;45.392;10.918;2022-09-09T14:29:29;9.68;;;2.97;;
42338;SDS011;27993;45.392;10.918;2022-09-09T14:32:00;6.75;;;2.00;;
42338;SDS011;27993;45.392;10.918;2022-09-09T14:34:30;3.30;;;2.33;;
42338;SDS011;27993;45.392;10.918;2022-09-09T14:37:05;8.98;;;2.35;;
42338;SDS011;27993;45.392;10.918;2022-09-09T14:39:36;5.90;;;2.20;;
42338;SDS011;27993;45.392;10.918;2022-09-09T14:42:06;5.55;;;2.40;;
42338;SDS011;27993;45.392;10.918;2022-09-09T14:44:37;9.45;;;2.15;;
42338;SDS011;27993;45.392;10.918;2022-09-09T14:47:08;4.07;;;2.00;;
42338;SDS011;27993;45.392;10.918;2022-09-09T14:49:38;5.72;;;2.55;;
42338;SDS011;27993;45.392;10.918;2022-09-09T14:52:09;2.60;;;1.92;;
42338;SDS011;27993;45.392;10.918;2022-09-09T14:54:40;4.55;;;2.08;;
42338;SDS011;27993;45.392;10.918;2022-09-09T14:57:10;6.03;;;1.95;;
42338;SDS011;27993;45.392;10.918;2022-09-09T14:59:41;5.75;;;2.40;;
42338;SDS011;27993;45.392;10.918;2022-09-09T15:02:11;3.03;;;1.70;;
42338;SDS011;27993;45.392;10.918;2022-09-09T15:04:43;4.85;;;2.40;;
42338;SDS011;27993;45.392;10.918;2022-09-09T15:07:14;9.43;;;2.42;;
42338;SDS011;27993;45.392;10.918;2022-09-09T15:09:45;3.75;;;2.58;;
42338;SDS011;27993;45.392;10.918;2022-09-09T15:12:18;5.32;;;2.55;;
42338;SDS011;27993;45.392;10.918;2022-09-09T15:14:51;3.70;;;2.30;;
42338;SDS011;27993;45.392;10.918;2022-09-09T15:17:23;3.70;;;1.85;;
42338;SDS011;27993;45.392;10.918;2022-09-09T15:19:55;2.92;;;1.75;;
42338;SDS011;27993;45.392;10.918;2022-09-09T15:22:26;3.37;;;1.48;;
42338;SDS011;27993;45.392;10.918;2022-09-09T15:24:57;6.03;;;2.10;;
42338;SDS011;27993;45.392;10.918;2022-09-09T15:27:28;4.47;;;2.10;;
42338;SDS011;27993;45.392;10.918;2022-09-09T15:30:01;4.70;;;2.20;;
42338;SDS011;27993;45.392;10.918;2022-09-09T15:32:31;3.22;;;2.28;;
42338;SDS011;27993;45.392;10.918;2022-09-09T15:35:04;5.45;;;2.05;;
42338;SDS011;27993;45.392;10.918;2022-09-09T15:37:35;3.17;;;2.03;;
42338;SDS011;27993;45.392;10.918;2022-09-09T15:40:06;3.22;;;2.00;;
42338;SDS011;27993;45.392;10.918;2022-09-09T15:42:37;4.55;;;2.92;;
42338;SDS011;27993;45.392;10.918;2022-09-09T15:45:07;4.40;;;2.50;;
42338;SDS011;27993;45.392;10.918;2022-09-09T15:47:39;9.52;;;2.72;;
42338;SDS011;27993;45.392;10.918;2022-09-09T15:50:09;7.07;;;2.12;;
42338;SDS011;27993;45.392;10.918;2022-09-09T15:52:40;4.68;;;2.22;;
42338;SDS011;27993;45.392;10.918;2022-09-09T15:55:11;3.58;;;2.58;;
42338;SDS011;27993;45.392;10.918;2022-09-09T15:57:41;3.40;;;2.55;;
42338;SDS011;27993;45.392;10.918;2022-09-09T16:00:12;5.47;;;2.58;;
42338;SDS011;27993;45.392;10.918;2022-09-09T16:02:43;5.75;;;2.22;;
42338;SDS011;27993;45.392;10.918;2022-09-09T16:05:16;3.45;;;2.35;;
42338;SDS011;27993;45.392;10.918;2022-09-09T16:07:47;6.12;;;2.90;;
42338;SDS011;27993;45.392;10.918;2022-09-09T16:10:18;4.60;;;2.17;;
42338;SDS011;27993;45.392;10.918;2022-09-09T16:12:48;1.83;;;1.60;;
42338;SDS011;27993;45.392;10.918;2022-09-09T16:15:19;3.80;;;2.20;;
42338;SDS011;27993;45.392;10.918;2022-09-09T16:17:55;6.10;;;2.20;;
42338;SDS011;27993;45.392;10.918;2022-09-09T16:20:25;5.00;;;2.22;;
42338;SDS011;27993;45.392;10.918;2022-09-09T16:22:56;8.57;;;2.58;;
42338;SDS011;27993;45.392;10.918;2022-09-09T16:25:27;3.85;;;2.53;;
42338;SDS011;27993;45.392;10.918;2022-09-09T16:27:57;4.05;;;3.03;;
42338;SDS011;27993;45.392;10.918;2022-09-09T16:30:28;11.05;;;2.42;;
42338;SDS011;27993;45.392;10.918;2022-09-09T16:32:58;4.32;;;1.87;;
42338;SDS011;27993;45.392;10.918;2022-09-09T16:35:29;3.12;;;1.73;;
42338;SDS011;27993;45.392;10.918;2022-09-09T16:38:00;7.62;;;2.30;;
42338;SDS011;27993;45.392;10.918;2022-09-09T16:40:33;4.87;;;2.60;;
42338;SDS011;27993;45.392;10.918;2022-09-09T16:43:04;7.50;;;2.40;;
42338;SDS011;27993;45.392;10.918;2022-09-09T16:45:41;6.53;;;2.60;;
42338;SDS011;27993;45.392;10.918;2022-09-09T16:48:12;6.75;;;3.15;;
42338;SDS011;27993;45.392;10.918;2022-09-09T16:50:42;4.12;;;2.72;;
42338;SDS011;27993;45.392;10.918;2022-09-09T16:53:14;3.80;;;2.62;;
42338;SDS011;27993;45.392;10.918;2022-09-09T16:55:45;3.37;;;2.80;;
42338;SDS011;27993;45.392;10.918;2022-09-09T16:58:15;3.22;;;2.60;;
42338;SDS011;27993;45.392;10.918;2022-09-09T17:00:46;4.80;;;2.60;;
42338;SDS011;27993;45.392;10.918;2022-09-09T17:03:17;4.60;;;2.92;;
42338;SDS011;27993;45.392;10.918;2022-09-09T17:05:48;5.40;;;2.90;;
42338;SDS011;27993;45.392;10.918;2022-09-09T17:08:19;8.35;;;2.67;;
42338;SDS011;27993;45.392;10.918;2022-09-09T17:10:50;5.35;;;2.60;;
42338;SDS011;27993;45.392;10.918;2022-09-09T17:13:20;4.55;;;2.50;;
42338;SDS011;27993;45.392;10.918;2022-09-09T17:15:51;3.03;;;2.30;;
42338;SDS011;27993;45.392;10.918;2022-09-09T17:18:22;5.45;;;2.67;;
42338;SDS011;27993;45.392;10.918;2022-09-09T17:21:02;2.95;;;2.10;;
42338;SDS011;27993;45.392;10.918;2022-09-09T17:23:34;3.50;;;2.10;;
42338;SDS011;27993;45.392;10.918;2022-09-09T17:26:11;3.55;;;1.95;;
42338;SDS011;27993;45.392;10.918;2022-09-09T17:28:45;3.50;;;2.35;;
42338;SDS011;27993;45.392;10.918;2022-09-09T17:31:16;3.55;;;1.80;;
42338;SDS011;27993;45.392;10.918;2022-09-09T17:33:51;5.85;;;2.30;;
42338;SDS011;27993;45.392;10.918;2022-09-09T17:36:29;3.95;;;2.30;;
42338;SDS011;27993;45.392;10.918;2022-09-09T17:39:03;3.47;;;2.30;;
42338;SDS011;27993;45.392;10.918;2022-09-09T17:41:35;3.17;;;2.00;;
42338;SDS011;27993;45.392;10.918;2022-09-09T17:44:07;4.57;;;2.15;;